createdAt,value
2019-04-25T00:02:23.816Z,8.28
2019-04-25T00:04:54.243Z,9.98
2019-04-25T00:07:24.810Z,6.37
2019-04-25T00:09:56.015Z,10.82
2019-04-25T00:12:26.443Z,9.13
2019-04-25T00:14:58.415Z,7.72
2019-04-25T00:17:31.516Z,9.60
2019-04-25T00:20:02.096Z,6.83
2019-04-25T00:22:42.902Z,8.73
2019-04-25T00:25:31.921Z,8.48
2019-04-25T00:28:02.540Z,7.58
2019-04-25T00:30:33.235Z,9.88
2019-04-25T00:33:03.705Z,11.38
2019-04-25T00:35:34.366Z,9.08
2019-04-25T00:38:04.762Z,8.55
2019-04-25T00:40:35.128Z,9.18
2019-04-25T00:43:05.467Z,8.05
2019-04-25T00:45:35.828Z,10.23
2019-04-25T00:48:06.328Z,9.30
2019-04-25T00:50:36.645Z,7.67
2019-04-25T00:53:06.964Z,8.00
2019-04-25T00:55:37.369Z,8.73
2019-04-25T00:58:13.797Z,8.40
2019-04-25T01:01:04.039Z,6.35
2019-04-25T01:03:35.049Z,10.23
2019-04-25T01:06:06.427Z,9.25
2019-04-25T01:08:48.529Z,9.43
2019-04-25T01:11:18.964Z,7.05
2019-04-25T01:13:49.355Z,8.55
2019-04-25T01:16:19.745Z,8.00
2019-04-25T01:18:50.825Z,9.83
2019-04-25T01:21:21.312Z,7.50
2019-04-25T01:23:53.323Z,8.90
2019-04-25T01:26:24.031Z,6.42
2019-04-25T01:28:54.925Z,7.90
2019-04-25T01:31:27.009Z,8.00
2019-04-25T01:33:57.375Z,9.38
2019-04-25T01:36:49.483Z,8.58
2019-04-25T01:39:38.498Z,10.38
2019-04-25T01:42:26.795Z,6.80
2019-04-25T01:44:58.864Z,8.68
2019-04-25T01:47:29.493Z,9.00
2019-04-25T01:49:59.847Z,10.20
2019-04-25T01:52:30.248Z,9.93
2019-04-25T01:55:13.678Z,7.80
2019-04-25T01:57:45.356Z,6.62
2019-04-25T02:00:18.934Z,8.08
2019-04-25T02:02:50.411Z,9.08
2019-04-25T02:05:21.426Z,5.95
2019-04-25T02:07:51.915Z,8.08
2019-04-25T02:10:23.511Z,9.60
2019-04-25T02:12:58.236Z,8.48
2019-04-25T02:15:30.858Z,6.08
2019-04-25T02:18:01.855Z,7.42
2019-04-25T02:20:33.925Z,9.08
2019-04-25T02:23:05.047Z,7.42
2019-04-25T02:25:47.334Z,7.80
2019-04-25T02:28:17.918Z,8.93
2019-04-25T02:30:48.329Z,7.83
2019-04-25T02:33:18.749Z,6.62
2019-04-25T02:35:49.161Z,7.15
2019-04-25T02:38:19.642Z,7.95
2019-04-25T02:40:50.138Z,8.53
2019-04-25T02:43:20.514Z,6.50
2019-04-25T02:46:16.187Z,9.20
2019-04-25T02:49:09.581Z,6.78
2019-04-25T02:51:59.175Z,8.05
2019-04-25T02:54:29.487Z,6.20
2019-04-25T02:57:00.024Z,7.40
2019-04-25T02:59:30.333Z,6.08
2019-04-25T03:02:00.853Z,7.42
2019-04-25T03:04:31.408Z,9.23
2019-04-25T03:07:02.651Z,10.03
2019-04-25T03:09:35.276Z,7.50
2019-04-25T03:12:07.623Z,6.25
2019-04-25T03:14:37.990Z,8.90
2019-04-25T03:17:09.918Z,7.47
2019-04-25T03:20:00.885Z,6.97
2019-04-25T03:22:34.194Z,7.70
2019-04-25T03:25:06.827Z,6.67
2019-04-25T03:27:35.787Z,8.13
2019-04-25T03:30:10.992Z,7.47
2019-04-25T03:32:39.227Z,7.75
2019-04-25T03:35:09.635Z,6.67
2019-04-25T03:37:39.959Z,7.87
2019-04-25T03:40:10.353Z,8.75
2019-04-25T03:42:40.666Z,7.75
2019-04-25T03:45:30.215Z,7.67
2019-04-25T03:48:01.159Z,6.28
2019-04-25T03:50:34.095Z,7.65
2019-04-25T03:53:05.437Z,8.75
2019-04-25T03:55:37.499Z,7.00
2019-04-25T03:58:10.545Z,8.48
2019-04-25T04:00:40.049Z,6.50
2019-04-25T04:03:11.419Z,6.33
2019-04-25T04:05:41.828Z,7.40
2019-04-25T04:08:12.195Z,6.37
2019-04-25T04:10:43.248Z,8.28
2019-04-25T04:13:14.608Z,7.78
2019-04-25T04:15:45.831Z,6.85
2019-04-25T04:18:28.861Z,7.42
2019-04-25T04:21:17.444Z,7.62
2019-04-25T04:23:52.339Z,7.72
2019-04-25T04:26:23.256Z,7.83
2019-04-25T04:28:53.579Z,9.73
2019-04-25T04:31:23.990Z,5.78
2019-04-25T04:33:54.402Z,9.70
2019-04-25T04:36:24.836Z,8.03
2019-04-25T04:38:55.213Z,7.22
2019-04-25T04:41:25.589Z,9.28
2019-04-25T04:43:55.926Z,7.12
2019-04-25T04:46:26.347Z,6.60
2019-04-25T04:48:56.803Z,6.85
2019-04-25T04:51:27.170Z,7.20
2019-04-25T04:53:57.622Z,7.85
2019-04-25T04:56:27.969Z,7.80
2019-04-25T04:58:58.269Z,7.50
2019-04-25T05:01:30.257Z,6.40
2019-04-25T05:04:16.044Z,7.80
2019-04-25T05:07:09.246Z,6.17
2019-04-25T05:09:39.647Z,8.03
2019-04-25T05:12:10.711Z,7.78
2019-04-25T05:14:41.865Z,9.35
2019-04-25T05:17:14.957Z,9.68
2019-04-25T05:19:45.804Z,9.60
2019-04-25T05:22:16.862Z,9.73
2019-04-25T05:24:47.569Z,8.40
2019-04-25T05:27:33.719Z,13.80
2019-04-25T05:29:49.733Z,9.30
2019-04-25T05:32:20.189Z,10.53
2019-04-25T05:34:50.605Z,11.83
2019-04-25T05:37:21.812Z,10.82
2019-04-25T05:39:53.540Z,9.75
2019-04-25T05:42:36.435Z,8.55
2019-04-25T05:45:06.916Z,11.50
2019-04-25T05:47:37.217Z,12.60
2019-04-25T05:50:21.996Z,11.40
2019-04-25T05:52:54.130Z,14.53
2019-04-25T05:55:25.223Z,10.38
2019-04-25T05:57:55.713Z,14.70
2019-04-25T06:00:26.271Z,14.60
2019-04-25T06:02:59.132Z,10.68
2019-04-25T06:05:29.633Z,14.15
2019-04-25T06:07:59.833Z,11.70
2019-04-25T06:11:18.028Z,11.33
2019-04-25T06:14:00.335Z,15.05
2019-04-25T06:16:33.403Z,15.38
2019-04-25T06:19:14.307Z,15.32
2019-04-25T06:21:44.450Z,11.20
2019-04-25T06:24:30.655Z,14.58
2019-04-25T06:27:20.564Z,16.45
2019-04-25T06:30:08.291Z,18.07
2019-04-25T06:32:38.795Z,22.27
2019-04-25T06:35:18.715Z,16.73
2019-04-25T06:37:51.091Z,23.27
2019-04-25T06:40:22.496Z,32.58
2019-04-25T06:42:55.295Z,36.88
2019-04-25T06:45:45.353Z,66.53
2019-04-25T06:48:46.291Z,63.92
2019-04-25T06:51:17.020Z,87.30
2019-04-25T06:53:56.158Z,80.85
2019-04-25T06:56:27.444Z,64.85
2019-04-25T06:58:58.427Z,66.40
2019-04-25T07:01:29.103Z,69.32
2019-04-25T07:04:00.632Z,70.90
2019-04-25T07:06:31.370Z,87.40
2019-04-25T07:09:04.100Z,114.47
2019-04-25T07:11:36.050Z,93.50
2019-04-25T07:14:06.648Z,90.40
2019-04-25T07:16:37.836Z,65.57
2019-04-25T07:19:08.703Z,63.83
2019-04-25T07:21:40.927Z,41.25
2019-04-25T07:24:17.421Z,44.42
2019-04-25T07:27:11.333Z,47.40
2019-04-25T07:29:54.418Z,22.15
2019-04-25T07:32:34.884Z,36.70
2019-04-25T07:35:06.389Z,31.10
2019-04-25T07:37:41.802Z,26.25
2019-04-25T07:40:11.966Z,26.77
2019-04-25T07:42:45.639Z,34.60
2019-04-25T07:45:18.121Z,28.15
2019-04-25T07:47:49.165Z,26.60
2019-04-25T07:50:23.908Z,22.55
2019-04-25T07:52:54.680Z,34.08
2019-04-25T07:55:25.087Z,24.63
2019-04-25T07:57:55.705Z,24.63
2019-04-25T08:00:27.280Z,33.13
2019-04-25T08:02:57.866Z,24.05
2019-04-25T08:05:29.588Z,30.65
2019-04-25T08:08:03.532Z,40.58
2019-04-25T08:11:00.589Z,32.53
2019-04-25T08:13:37.394Z,26.35
2019-04-25T08:16:08.417Z,18.50
2019-04-25T08:18:39.044Z,29.82
2019-04-25T08:21:12.291Z,29.50
2019-04-25T08:23:44.290Z,24.00
2019-04-25T08:26:17.336Z,22.30
2019-04-25T08:28:55.208Z,44.58
2019-04-25T08:31:23.454Z,19.65
2019-04-25T08:33:54.350Z,24.18
2019-04-25T08:36:31.284Z,28.25
2019-04-25T08:39:09.953Z,20.80
2019-04-25T08:41:45.644Z,31.27
2019-04-25T08:44:15.627Z,26.23
2019-04-25T08:46:48.807Z,17.42
2019-04-25T08:49:31.233Z,28.77
2019-04-25T08:52:04.360Z,22.35
2019-04-25T08:54:51.722Z,29.70
2019-04-25T08:57:40.222Z,27.60
2019-04-25T09:00:19.858Z,28.92
2019-04-25T09:02:57.983Z,36.48
2019-04-25T09:05:38.996Z,22.27
2019-04-25T09:08:14.164Z,121.50
2019-04-25T09:10:47.189Z,70.80
2019-04-25T09:13:30.946Z,44.10
2019-04-25T09:16:05.952Z,72.60
2019-04-25T09:18:36.685Z,65.70
2019-04-25T09:21:06.401Z,48.08
2019-04-25T09:23:37.863Z,41.05
2019-04-25T09:26:08.295Z,52.15
2019-04-25T09:28:40.763Z,28.15
2019-04-25T09:31:11.648Z,32.17
2019-04-25T09:33:43.853Z,26.02
2019-04-25T09:36:14.497Z,27.77
2019-04-25T09:38:48.597Z,23.95
2019-04-25T09:41:19.370Z,29.85
2019-04-25T09:43:52.997Z,25.97
2019-04-25T09:46:29.354Z,31.97
2019-04-25T09:49:15.624Z,28.60
2019-04-25T09:51:53.437Z,34.20
2019-04-25T09:54:47.368Z,35.28
2019-04-25T09:57:36.377Z,27.40
2019-04-25T10:00:08.808Z,34.60
2019-04-25T10:03:09.975Z,37.15
2019-04-25T10:05:40.481Z,48.10
2019-04-25T10:08:14.366Z,33.25
2019-04-25T10:10:46.764Z,29.60
2019-04-25T10:13:20.612Z,34.27
2019-04-25T10:16:07.555Z,37.40
2019-04-25T10:18:41.251Z,23.20
2019-04-25T10:21:14.411Z,27.58
2019-04-25T10:23:46.424Z,15.98
2019-04-25T10:26:18.541Z,16.52
2019-04-25T10:28:49.603Z,13.85
2019-04-25T10:31:23.848Z,18.75
2019-04-25T10:33:54.604Z,18.98
2019-04-25T10:36:31.224Z,18.40
2019-04-25T10:39:10.323Z,16.62
2019-04-25T10:41:41.240Z,14.90
2019-04-25T10:44:13.984Z,20.02
2019-04-25T10:46:47.226Z,17.37
2019-04-25T10:49:18.791Z,16.57
2019-04-25T10:51:49.948Z,15.00
2019-04-25T10:54:21.939Z,18.20
2019-04-25T10:56:57.099Z,25.27
2019-04-25T10:59:27.782Z,34.50
2019-04-25T11:01:58.121Z,34.65
2019-04-25T11:04:39.664Z,20.88
2019-04-25T11:07:11.266Z,23.65
2019-04-25T11:09:44.933Z,29.30
2019-04-25T11:12:15.040Z,22.48
2019-04-25T11:14:46.435Z,33.40
2019-04-25T11:18:04.077Z,22.77
2019-04-25T11:20:35.035Z,35.80
2019-04-25T11:23:05.518Z,18.67
2019-04-25T11:25:39.355Z,24.47
2019-04-25T11:28:09.886Z,25.50
2019-04-25T11:30:41.859Z,13.40
2019-04-25T11:33:14.330Z,19.95
2019-04-25T11:35:46.797Z,15.50
2019-04-25T11:38:25.443Z,15.90
2019-04-25T11:41:01.511Z,17.95
2019-04-25T11:43:32.014Z,18.65
2019-04-25T11:46:04.823Z,15.58
2019-04-25T11:48:36.236Z,17.25
2019-04-25T11:51:08.077Z,16.37
2019-04-25T11:53:38.571Z,10.95
2019-04-25T11:56:09.347Z,22.00
2019-04-25T11:58:39.918Z,16.25
2019-04-25T12:01:13.856Z,16.77
2019-04-25T12:03:48.017Z,25.72
2019-04-25T12:06:18.404Z,27.30
2019-04-25T12:08:49.109Z,32.35
2019-04-25T12:11:19.681Z,23.25
2019-04-25T12:14:02.061Z,30.55
2019-04-25T12:16:35.080Z,24.80
2019-04-25T12:19:05.582Z,18.42
2019-04-25T12:21:38.923Z,30.88
2019-04-25T12:24:09.780Z,207.20
2019-04-25T12:26:45.310Z,167.72
2019-04-25T12:29:17.917Z,160.18
2019-04-25T12:31:49.343Z,171.20
2019-04-25T12:34:20.108Z,146.75
2019-04-25T12:36:53.954Z,140.90
2019-04-25T12:39:25.923Z,132.75
2019-04-25T12:41:58.187Z,130.45
2019-04-25T12:44:53.943Z,101.45
2019-04-25T12:47:25.624Z,103.22
2019-04-25T12:50:15.388Z,95.25
2019-04-25T12:52:47.253Z,95.03
2019-04-25T12:55:20.214Z,68.00
2019-04-25T12:57:51.457Z,61.23
2019-04-25T13:00:26.439Z,75.92
2019-04-25T13:02:57.185Z,64.42
2019-04-25T13:05:28.531Z,63.00
2019-04-25T13:08:18.481Z,51.35
2019-04-25T13:11:10.435Z,31.27
2019-04-25T13:13:43.513Z,28.70
2019-04-25T13:16:20.154Z,29.72
2019-04-25T13:18:55.611Z,45.00
2019-04-25T13:21:25.960Z,26.97
2019-04-25T13:23:58.015Z,27.75
2019-04-25T13:26:33.681Z,35.80
2019-04-25T13:32:12.269Z,30.62
2019-04-25T13:34:45.178Z,16.67
2019-04-25T13:37:16.560Z,23.00
2019-04-25T13:39:50.255Z,32.63
2019-04-25T13:42:25.265Z,27.82
2019-04-25T13:44:57.532Z,30.72
2019-04-25T13:47:39.279Z,32.08
2019-04-25T13:50:16.200Z,34.92
2019-04-25T13:52:49.043Z,28.50
2019-04-25T13:55:27.692Z,28.98
2019-04-25T13:57:58.457Z,22.05
2019-04-25T14:00:31.098Z,25.88
2019-04-25T14:03:04.922Z,27.62
2019-04-25T14:05:35.453Z,45.88
2019-04-25T14:08:06.206Z,33.98
2019-04-25T14:10:36.718Z,20.02
2019-04-25T14:13:07.702Z,18.23
2019-04-25T14:15:39.921Z,27.10
2019-04-25T14:18:28.770Z,17.32
2019-04-25T14:21:06.737Z,20.00
2019-04-25T14:23:38.367Z,27.40
2019-04-25T14:26:09.922Z,19.40
2019-04-25T14:28:40.318Z,22.22
2019-04-25T14:31:13.124Z,20.37
2019-04-25T14:33:45.139Z,24.25
